createdAt,value
2018-06-29T00:01:48.284Z,9.38
2018-06-29T00:04:15.815Z,9.37
2018-06-29T00:06:43.320Z,9.34
2018-06-29T00:09:10.843Z,9.34
2018-06-29T00:11:38.394Z,9.35
2018-06-29T00:14:05.902Z,9.35
2018-06-29T00:16:33.478Z,9.35
2018-06-29T00:19:00.996Z,9.36
2018-06-29T00:21:28.496Z,9.37
2018-06-29T00:23:55.999Z,9.35
2018-06-29T00:26:23.512Z,9.37
2018-06-29T00:28:51.011Z,9.38
2018-06-29T00:31:18.527Z,9.41
2018-06-29T00:33:46.015Z,9.38
2018-06-29T00:36:13.527Z,9.37
2018-06-29T00:38:41.051Z,9.36
2018-06-29T00:41:08.552Z,9.36
2018-06-29T00:43:36.055Z,9.35
2018-06-29T00:46:03.605Z,9.36
2018-06-29T00:48:31.096Z,9.31
2018-06-29T00:50:58.627Z,9.28
2018-06-29T00:53:26.151Z,9.27
2018-06-29T00:55:53.699Z,9.24
2018-06-29T00:58:21.195Z,9.25
2018-06-29T01:00:48.711Z,9.22
2018-06-29T01:03:16.263Z,9.21
2018-06-29T01:05:43.789Z,9.20
2018-06-29T01:08:11.384Z,9.17
2018-06-29T01:10:38.922Z,9.18
2018-06-29T01:13:06.435Z,9.15
2018-06-29T01:15:33.975Z,9.12
2018-06-29T01:18:01.475Z,9.10
2018-06-29T01:20:29.051Z,9.10
2018-06-29T01:22:56.579Z,9.11
2018-06-29T01:25:24.060Z,9.10
2018-06-29T01:27:51.609Z,9.07
2018-06-29T01:30:19.139Z,9.10
2018-06-29T01:32:46.637Z,9.11
2018-06-29T01:35:14.163Z,9.10
2018-06-29T01:37:41.730Z,9.07
2018-06-29T01:40:09.247Z,9.07
2018-06-29T01:42:36.723Z,9.03
2018-06-29T01:45:04.866Z,9.02
2018-06-29T01:47:32.352Z,8.99
2018-06-29T01:49:59.838Z,8.99
2018-06-29T01:52:27.380Z,8.92
2018-06-29T01:54:54.870Z,8.93
2018-06-29T01:57:22.342Z,8.93
2018-06-29T01:59:49.902Z,8.88
2018-06-29T02:02:17.455Z,8.83
2018-06-29T02:04:44.943Z,8.78
2018-06-29T02:07:12.475Z,8.80
2018-06-29T02:09:40.000Z,8.71
2018-06-29T02:12:08.799Z,8.69
2018-06-29T02:14:36.310Z,8.64
2018-06-29T02:17:03.864Z,8.59
2018-06-29T02:19:31.356Z,8.59
2018-06-29T02:21:58.859Z,8.58
2018-06-29T02:24:26.357Z,8.63
2018-06-29T02:26:53.862Z,8.63
2018-06-29T02:29:21.371Z,8.60
2018-06-29T02:31:48.936Z,8.57
2018-06-29T02:34:16.440Z,8.56
2018-06-29T02:36:43.931Z,8.57
2018-06-29T02:39:13.105Z,8.59
2018-06-29T02:41:41.048Z,8.58
2018-06-29T02:44:08.556Z,8.61
2018-06-29T02:46:36.147Z,8.60
2018-06-29T02:49:03.732Z,8.59
2018-06-29T02:51:31.231Z,8.57
2018-06-29T02:53:58.853Z,8.58
2018-06-29T02:56:26.370Z,8.62
2018-06-29T02:58:53.875Z,8.65
2018-06-29T03:01:21.595Z,8.72
2018-06-29T03:03:49.101Z,8.75
2018-06-29T03:06:16.589Z,8.82
2018-06-29T03:08:44.102Z,8.87
2018-06-29T03:11:11.597Z,8.95
2018-06-29T03:13:39.111Z,9.06
2018-06-29T03:16:06.616Z,9.15
2018-06-29T03:18:34.537Z,9.28
2018-06-29T03:21:02.036Z,9.41
2018-06-29T03:23:29.539Z,9.58
2018-06-29T03:25:57.052Z,9.71
2018-06-29T03:28:24.623Z,9.94
2018-06-29T03:30:52.133Z,10.20
2018-06-29T03:33:19.630Z,10.46
2018-06-29T03:35:47.167Z,10.59
2018-06-29T03:38:14.667Z,10.88
2018-06-29T03:40:42.284Z,10.88
2018-06-29T03:43:09.759Z,11.12
2018-06-29T03:45:37.274Z,11.43
2018-06-29T03:48:04.751Z,11.69
2018-06-29T03:50:32.291Z,11.93
2018-06-29T03:52:59.795Z,11.95
2018-06-29T03:55:27.335Z,12.25
2018-06-29T03:57:54.843Z,12.44
2018-06-29T04:00:22.367Z,12.71
2018-06-29T04:02:50.015Z,12.87
2018-06-29T04:05:17.539Z,13.08
2018-06-29T04:07:45.052Z,13.04
2018-06-29T04:10:12.577Z,13.18
2018-06-29T04:12:40.085Z,13.43
2018-06-29T04:15:08.050Z,13.76
2018-06-29T04:17:35.594Z,13.96
2018-06-29T04:20:03.158Z,14.08
2018-06-29T04:22:30.647Z,14.18
2018-06-29T04:25:00.744Z,14.54
2018-06-29T04:27:28.318Z,14.43
2018-06-29T04:29:55.802Z,14.38
2018-06-29T04:32:23.398Z,14.41
2018-06-29T04:34:50.905Z,14.85
2018-06-29T04:37:18.415Z,14.79
2018-06-29T04:39:45.935Z,15.13
2018-06-29T04:42:13.475Z,15.02
2018-06-29T04:44:41.035Z,15.01
2018-06-29T04:47:08.634Z,15.24
2018-06-29T04:49:36.156Z,15.70
2018-06-29T04:52:03.695Z,15.91
2018-06-29T04:54:31.208Z,15.76
2018-06-29T04:56:58.815Z,15.90
2018-06-29T04:59:26.336Z,15.89
2018-06-29T05:01:53.849Z,16.09
2018-06-29T05:04:21.358Z,15.88
2018-06-29T05:06:48.882Z,15.70
2018-06-29T05:09:16.575Z,15.83
2018-06-29T05:11:44.087Z,15.93
2018-06-29T05:14:11.595Z,16.04
2018-06-29T05:16:39.143Z,15.90
2018-06-29T05:19:06.643Z,16.16
2018-06-29T05:21:34.134Z,16.39
2018-06-29T05:24:01.663Z,16.11
2018-06-29T05:26:29.192Z,16.30
2018-06-29T05:28:56.706Z,16.55
2018-06-29T05:31:24.216Z,16.28
2018-06-29T05:33:51.850Z,16.76
2018-06-29T05:36:19.351Z,17.64
2018-06-29T05:38:46.860Z,17.26
2018-06-29T05:41:14.442Z,16.95
2018-06-29T05:43:41.953Z,16.65
2018-06-29T05:46:09.507Z,16.87
2018-06-29T05:48:37.034Z,17.20
2018-06-29T05:51:04.534Z,17.20
2018-06-29T05:53:32.061Z,16.99
2018-06-29T05:55:59.571Z,16.88
2018-06-29T05:58:27.112Z,17.10
2018-06-29T06:00:54.686Z,17.81
2018-06-29T06:03:22.239Z,17.79
2018-06-29T06:05:49.755Z,18.05
2018-06-29T06:08:17.259Z,18.03
2018-06-29T06:10:44.818Z,18.46
2018-06-29T06:13:12.330Z,18.26
2018-06-29T06:15:39.823Z,18.05
2018-06-29T06:18:07.488Z,18.15
2018-06-29T06:20:35.003Z,18.51
2018-06-29T06:23:15.653Z,18.80
2018-06-29T06:25:43.177Z,18.37
2018-06-29T06:28:10.719Z,18.99
2018-06-29T06:30:38.269Z,19.05
2018-06-29T06:33:05.809Z,18.53
2018-06-29T06:35:33.352Z,19.11
2018-06-29T06:38:00.923Z,19.14
2018-06-29T06:40:28.460Z,18.90
2018-06-29T06:42:55.963Z,18.76
2018-06-29T06:45:23.507Z,19.18
2018-06-29T06:47:51.005Z,19.25
2018-06-29T06:50:18.562Z,19.07
2018-06-29T06:52:46.110Z,19.70
2018-06-29T06:55:13.604Z,20.31
2018-06-29T06:57:41.111Z,20.56
2018-06-29T07:00:08.634Z,19.96
2018-06-29T07:02:36.159Z,19.03
2018-06-29T07:05:03.747Z,18.20
2018-06-29T07:07:31.260Z,18.87
2018-06-29T07:09:58.774Z,19.06
2018-06-29T07:12:26.323Z,18.66
2018-06-29T07:14:53.863Z,18.16
2018-06-29T07:17:21.376Z,17.71
2018-06-29T07:19:48.897Z,16.93
2018-06-29T07:22:16.421Z,16.93
2018-06-29T07:24:43.982Z,17.10
2018-06-29T07:27:11.482Z,17.21
2018-06-29T07:29:38.979Z,17.82
2018-06-29T07:32:06.494Z,18.13
2018-06-29T07:34:34.038Z,17.93
2018-06-29T07:37:01.551Z,17.79
2018-06-29T07:39:29.100Z,17.80
2018-06-29T07:41:56.594Z,17.81
2018-06-29T07:44:24.080Z,17.69
2018-06-29T07:46:51.607Z,17.74
2018-06-29T07:49:19.092Z,17.68
2018-06-29T07:51:46.743Z,18.01
2018-06-29T07:54:14.247Z,18.39
2018-06-29T07:56:41.784Z,18.32
2018-06-29T07:59:09.347Z,18.21
2018-06-29T08:01:36.852Z,18.81
2018-06-29T08:04:04.507Z,18.47
2018-06-29T08:06:32.004Z,18.31
2018-06-29T08:08:59.542Z,18.87
2018-06-29T08:11:27.050Z,18.41
2018-06-29T08:13:54.548Z,18.63
2018-06-29T08:16:22.071Z,17.91
2018-06-29T08:18:49.603Z,17.64
2018-06-29T08:21:17.084Z,17.85
2018-06-29T08:23:44.571Z,18.17
2018-06-29T08:26:22.345Z,18.71
2018-06-29T08:28:49.835Z,19.00
2018-06-29T08:31:17.307Z,18.84
2018-06-29T08:33:44.853Z,19.62
2018-06-29T08:36:12.372Z,19.82
2018-06-29T08:38:39.908Z,19.91
2018-06-29T08:41:07.447Z,20.17
2018-06-29T08:43:34.967Z,20.24
2018-06-29T08:46:02.501Z,20.42
2018-06-29T08:48:30.088Z,20.46
2018-06-29T08:50:57.837Z,21.07
2018-06-29T08:53:25.351Z,20.27
2018-06-29T08:55:52.843Z,19.95
2018-06-29T08:58:20.446Z,19.23
2018-06-29T09:00:47.994Z,18.86
2018-06-29T09:03:15.535Z,18.66
2018-06-29T09:05:43.122Z,18.45
2018-06-29T09:08:10.611Z,18.36
2018-06-29T09:10:38.159Z,18.59
2018-06-29T09:13:06.019Z,19.41
2018-06-29T09:15:33.678Z,18.91
2018-06-29T09:18:01.183Z,19.20
2018-06-29T09:20:28.705Z,19.72
2018-06-29T09:22:56.244Z,20.03
2018-06-29T09:25:23.771Z,19.04
2018-06-29T09:27:51.282Z,18.65
2018-06-29T09:30:18.815Z,18.18
2018-06-29T09:32:46.378Z,17.89
2018-06-29T09:35:13.927Z,17.68
2018-06-29T09:37:41.425Z,17.77
2018-06-29T09:40:08.972Z,18.15
2018-06-29T09:42:36.542Z,18.37
2018-06-29T09:45:04.330Z,17.70
2018-06-29T09:47:31.875Z,17.29
2018-06-29T09:49:59.435Z,17.22
2018-06-29T09:52:26.959Z,16.93
2018-06-29T09:54:54.518Z,16.37
2018-06-29T09:57:22.150Z,16.06
2018-06-29T09:59:49.696Z,15.98
2018-06-29T10:02:17.248Z,15.70
2018-06-29T10:04:44.889Z,15.71
2018-06-29T10:07:12.415Z,15.92
2018-06-29T10:09:39.992Z,16.23
2018-06-29T10:12:07.491Z,16.45
2018-06-29T10:14:35.055Z,16.28
2018-06-29T10:17:02.594Z,16.11
2018-06-29T10:19:30.299Z,16.18
2018-06-29T10:21:57.836Z,16.40
2018-06-29T10:24:25.409Z,16.34
2018-06-29T10:26:52.934Z,16.38
2018-06-29T10:29:20.471Z,16.82
2018-06-29T10:31:47.976Z,18.12
2018-06-29T10:34:15.579Z,18.64
2018-06-29T10:36:43.172Z,18.35
2018-06-29T10:39:13.635Z,18.03
2018-06-29T10:41:41.555Z,17.79
2018-06-29T10:44:09.103Z,17.52
2018-06-29T10:46:37.037Z,17.58
2018-06-29T10:49:04.939Z,17.25
2018-06-29T10:51:32.439Z,17.27
2018-06-29T10:53:59.974Z,17.17
2018-06-29T10:56:27.481Z,17.08
2018-06-29T10:58:55.148Z,17.10
2018-06-29T11:01:22.667Z,17.18
2018-06-29T11:03:50.225Z,17.26
2018-06-29T11:06:17.887Z,17.07
2018-06-29T11:08:45.391Z,17.13
2018-06-29T11:11:12.900Z,17.57
2018-06-29T11:13:40.434Z,18.02
2018-06-29T11:16:07.919Z,18.01
2018-06-29T11:18:35.428Z,17.86
2018-06-29T11:21:02.941Z,17.68
2018-06-29T11:23:30.457Z,17.41
2018-06-29T11:25:58.027Z,17.18
2018-06-29T11:28:25.640Z,17.01
2018-06-29T11:30:53.183Z,16.67
2018-06-29T11:33:20.695Z,16.54
2018-06-29T11:35:48.194Z,16.47
2018-06-29T11:38:15.763Z,16.31
2018-06-29T11:40:43.319Z,16.36
2018-06-29T11:43:10.975Z,16.37
2018-06-29T11:45:38.517Z,16.30
2018-06-29T11:48:06.027Z,16.23
2018-06-29T11:50:33.573Z,16.21
2018-06-29T11:53:01.109Z,16.08
2018-06-29T11:55:28.637Z,15.91
2018-06-29T11:57:56.152Z,15.74
2018-06-29T12:00:23.681Z,16.01
2018-06-29T12:02:51.402Z,16.29
2018-06-29T12:05:18.994Z,16.42
2018-06-29T12:07:46.513Z,16.64
2018-06-29T12:10:14.035Z,16.76
2018-06-29T12:12:41.540Z,16.78
2018-06-29T12:15:09.072Z,16.52
2018-06-29T12:17:36.592Z,16.66
2018-06-29T12:20:04.145Z,16.98
2018-06-29T12:22:31.679Z,17.17
2018-06-29T12:24:59.207Z,17.51
2018-06-29T12:27:26.763Z,17.46
2018-06-29T12:29:54.295Z,17.69
2018-06-29T12:32:22.000Z,17.83
2018-06-29T12:34:49.495Z,17.82
2018-06-29T12:37:17.113Z,17.84
2018-06-29T12:39:44.632Z,18.11
2018-06-29T12:42:12.368Z,18.23
2018-06-29T12:44:39.868Z,18.07
2018-06-29T12:47:07.494Z,17.98
2018-06-29T12:49:35.024Z,17.58
2018-06-29T12:52:02.578Z,17.20
2018-06-29T12:54:30.111Z,16.94
2018-06-29T12:56:57.606Z,16.73
2018-06-29T12:59:25.111Z,17.09
2018-06-29T13:01:52.683Z,16.98
2018-06-29T13:04:20.218Z,17.03
2018-06-29T13:06:47.815Z,16.96
2018-06-29T13:09:15.343Z,17.14
2018-06-29T13:11:42.870Z,17.22
2018-06-29T13:14:10.389Z,17.10
2018-06-29T13:16:37.932Z,16.94
2018-06-29T13:19:05.512Z,17.36
2018-06-29T13:21:33.015Z,17.72
2018-06-29T13:24:00.542Z,17.83
2018-06-29T13:26:28.037Z,17.62
2018-06-29T13:28:55.524Z,17.50
2018-06-29T13:31:23.079Z,17.46
2018-06-29T13:33:50.582Z,17.61
2018-06-29T13:36:18.837Z,17.96
2018-06-29T13:38:46.400Z,18.31
2018-06-29T13:41:13.885Z,18.24
2018-06-29T13:43:41.379Z,18.47
2018-06-29T13:46:08.951Z,18.40
2018-06-29T13:48:36.427Z,18.05
2018-06-29T13:51:03.971Z,17.82
2018-06-29T13:53:31.482Z,17.76
2018-06-29T13:55:59.075Z,17.90
2018-06-29T13:58:26.595Z,17.69
2018-06-29T14:00:54.098Z,17.92
2018-06-29T14:03:21.630Z,17.98
2018-06-29T14:05:49.129Z,18.02
2018-06-29T14:08:16.758Z,18.06
2018-06-29T14:10:44.323Z,18.50
2018-06-29T14:13:11.838Z,18.69
2018-06-29T14:15:39.326Z,18.52
2018-06-29T14:18:06.937Z,18.44
2018-06-29T14:20:34.398Z,18.25
2018-06-29T14:23:01.888Z,18.03
2018-06-29T14:25:29.479Z,17.98
2018-06-29T14:27:57.014Z,17.78
2018-06-29T14:30:24.507Z,17.49
2018-06-29T14:32:52.328Z,17.03
2018-06-29T14:35:19.839Z,17.20
2018-06-29T14:37:47.331Z,17.26
2018-06-29T14:40:14.982Z,17.17
2018-06-29T14:42:42.481Z,17.22
2018-06-29T14:45:09.973Z,17.15
2018-06-29T14:47:37.518Z,17.19
2018-06-29T14:50:05.103Z,17.27
2018-06-29T14:52:32.615Z,17.20
2018-06-29T14:55:00.127Z,17.05
2018-06-29T14:57:27.655Z,16.96
2018-06-29T14:59:55.179Z,16.88
2018-06-29T15:02:22.679Z,16.85
2018-06-29T15:04:50.232Z,16.70
2018-06-29T15:07:17.742Z,16.63
2018-06-29T15:09:45.264Z,16.65
2018-06-29T15:12:12.806Z,16.48
2018-06-29T15:14:40.292Z,16.44
2018-06-29T15:17:07.828Z,16.45
2018-06-29T15:19:35.498Z,16.36
2018-06-29T15:22:03.043Z,16.31
2018-06-29T15:24:30.557Z,16.40
2018-06-29T15:26:58.072Z,16.23
2018-06-29T15:29:25.585Z,16.30
2018-06-29T15:31:53.280Z,16.43
2018-06-29T15:34:20.772Z,16.44
2018-06-29T15:36:48.293Z,16.48
2018-06-29T15:39:15.826Z,16.38
2018-06-29T15:41:43.391Z,16.25
2018-06-29T15:44:11.570Z,16.23
2018-06-29T15:46:39.115Z,16.19
2018-06-29T15:49:07.158Z,16.01
2018-06-29T15:51:34.728Z,15.92
2018-06-29T15:54:02.295Z,15.82
2018-06-29T15:56:29.848Z,15.75
2018-06-29T15:58:57.419Z,15.74
2018-06-29T16:01:25.144Z,15.73
2018-06-29T16:03:52.791Z,15.72
2018-06-29T16:06:20.385Z,15.72
2018-06-29T16:08:48.181Z,15.75
2018-06-29T16:11:15.768Z,15.82
2018-06-29T16:13:43.644Z,15.90
2018-06-29T16:16:12.300Z,15.97
2018-06-29T16:18:39.918Z,16.11
2018-06-29T16:21:07.530Z,16.20
2018-06-29T16:23:35.149Z,16.24
2018-06-29T16:26:02.743Z,16.29
2018-06-29T16:28:30.334Z,16.28
2018-06-29T16:30:57.914Z,16.22
2018-06-29T16:33:25.508Z,16.18
2018-06-29T16:35:53.067Z,16.14
2018-06-29T16:38:20.627Z,16.03
2018-06-29T16:40:48.172Z,16.02
2018-06-29T16:43:16.022Z,16.04
2018-06-29T16:45:43.555Z,16.02
2018-06-29T16:48:11.088Z,16.08
2018-06-29T16:50:38.661Z,16.08
2018-06-29T16:53:06.228Z,16.00
2018-06-29T16:55:33.838Z,16.01
2018-06-29T16:58:01.399Z,15.81
2018-06-29T17:00:28.911Z,15.69
2018-06-29T17:02:56.440Z,15.61
2018-06-29T17:05:24.229Z,15.54
2018-06-29T17:07:51.895Z,15.43
2018-06-29T17:10:19.443Z,15.42
2018-06-29T17:12:47.320Z,15.38
2018-06-29T17:15:14.911Z,15.36
2018-06-29T17:17:42.443Z,15.27
2018-06-29T17:20:09.999Z,15.28
2018-06-29T17:22:37.649Z,15.28
2018-06-29T17:25:05.661Z,15.31
2018-06-29T17:27:33.193Z,15.29
2018-06-29T17:30:00.724Z,15.28
2018-06-29T17:32:28.415Z,15.25
2018-06-29T17:34:55.919Z,15.24
2018-06-29T17:37:23.539Z,15.23
2018-06-29T17:39:51.111Z,15.23
2018-06-29T17:42:18.615Z,15.12
2018-06-29T17:44:46.108Z,14.97
2018-06-29T17:47:13.599Z,14.80
2018-06-29T17:49:41.219Z,14.77
2018-06-29T17:52:08.752Z,14.80
2018-06-29T17:54:36.264Z,14.86
2018-06-29T17:57:03.776Z,14.89
2018-06-29T17:59:31.266Z,14.86
2018-06-29T18:01:58.797Z,14.84
2018-06-29T18:04:26.500Z,14.79
2018-06-29T18:06:53.939Z,14.75
2018-06-29T18:09:21.444Z,14.67
2018-06-29T18:11:49.021Z,14.61
2018-06-29T18:14:16.527Z,14.55
2018-06-29T18:16:44.011Z,14.47
2018-06-29T18:19:11.663Z,14.39
2018-06-29T18:21:39.155Z,14.34
2018-06-29T18:24:06.652Z,14.27
2018-06-29T18:26:34.177Z,14.22
2018-06-29T18:29:01.655Z,14.19
2018-06-29T18:31:29.208Z,14.17
2018-06-29T18:33:56.704Z,14.15
2018-06-29T18:36:24.198Z,14.12
2018-06-29T18:38:51.782Z,14.12
2018-06-29T18:41:19.279Z,14.06
2018-06-29T18:43:46.775Z,13.94
2018-06-29T18:46:14.291Z,13.84
2018-06-29T18:48:41.806Z,13.76
2018-06-29T18:51:09.314Z,13.67
2018-06-29T18:53:36.921Z,13.62
2018-06-29T18:56:04.506Z,13.58
2018-06-29T18:58:32.006Z,13.45
2018-06-29T19:00:59.519Z,13.37
2018-06-29T19:03:27.070Z,13.29
2018-06-29T19:05:54.635Z,13.21
2018-06-29T19:08:22.155Z,13.15
2018-06-29T19:10:49.769Z,13.12
2018-06-29T19:13:17.307Z,13.10
2018-06-29T19:15:44.812Z,13.07
2018-06-29T19:18:12.334Z,13.01
2018-06-29T19:20:39.863Z,12.90
2018-06-29T19:23:07.377Z,12.77
2018-06-29T19:25:34.919Z,12.67
2018-06-29T19:28:02.434Z,12.59
2018-06-29T19:30:29.968Z,12.48
2018-06-29T19:32:57.499Z,12.37
2018-06-29T19:35:25.045Z,12.28
2018-06-29T19:37:52.588Z,12.17
2018-06-29T19:40:20.104Z,12.06
2018-06-29T19:42:48.509Z,11.95
2018-06-29T19:45:16.056Z,11.83
2018-06-29T19:47:43.572Z,11.73
2018-06-29T19:50:11.101Z,11.59
2018-06-29T19:52:38.639Z,11.49
2018-06-29T19:55:06.207Z,11.36
2018-06-29T19:57:33.713Z,11.25
2018-06-29T20:00:01.279Z,11.17
2018-06-29T20:02:28.775Z,11.12
2018-06-29T20:04:57.681Z,11.06
2018-06-29T20:07:25.711Z,10.98
2018-06-29T20:09:53.239Z,10.93
2018-06-29T20:12:20.795Z,11.05
2018-06-29T20:14:48.322Z,11.22
2018-06-29T20:17:15.885Z,11.45
2018-06-29T20:19:43.412Z,11.72
2018-06-29T20:22:10.931Z,11.82
2018-06-29T20:24:38.746Z,11.83
2018-06-29T20:27:06.307Z,11.70
2018-06-29T20:29:33.816Z,11.60
2018-06-29T20:32:01.319Z,11.51
2018-06-29T20:34:28.871Z,11.45
2018-06-29T20:36:56.370Z,11.38
2018-06-29T20:39:23.868Z,11.35
2018-06-29T20:41:51.403Z,11.33
2018-06-29T20:44:18.962Z,11.35
2018-06-29T20:46:46.462Z,11.33
2018-06-29T20:49:13.963Z,11.30
2018-06-29T20:51:41.474Z,11.28
2018-06-29T20:54:08.979Z,11.25
2018-06-29T20:56:36.538Z,11.22
2018-06-29T20:59:04.059Z,11.21
2018-06-29T21:01:31.546Z,11.20
2018-06-29T21:03:59.062Z,11.19
2018-06-29T21:06:26.567Z,11.20
2018-06-29T21:08:54.094Z,11.19
2018-06-29T21:11:21.641Z,11.17
2018-06-29T21:13:49.125Z,11.16
2018-06-29T21:16:16.653Z,11.14
2018-06-29T21:18:44.188Z,11.13
2018-06-29T21:21:11.723Z,11.11
2018-06-29T21:23:39.230Z,11.09
2018-06-29T21:26:06.721Z,11.08
2018-06-29T21:28:34.263Z,11.07
2018-06-29T21:31:01.795Z,11.06
2018-06-29T21:33:29.347Z,11.07
2018-06-29T21:35:56.867Z,11.08
2018-06-29T21:38:24.366Z,11.06
2018-06-29T21:40:52.046Z,11.05
2018-06-29T21:43:19.544Z,11.02
2018-06-29T21:45:47.072Z,11.00
2018-06-29T21:48:14.617Z,10.99
2018-06-29T21:50:42.155Z,10.96
2018-06-29T21:53:09.735Z,10.98
2018-06-29T21:55:37.267Z,10.96
2018-06-29T21:58:05.275Z,10.96
2018-06-29T22:00:38.373Z,11.01
2018-06-29T22:03:07.678Z,11.01
2018-06-29T22:05:35.731Z,10.97
2018-06-29T22:08:03.271Z,10.95
2018-06-29T22:10:30.799Z,10.93
2018-06-29T22:12:58.312Z,10.88
2018-06-29T22:15:25.841Z,10.82
2018-06-29T22:17:53.843Z,10.79
2018-06-29T22:20:21.995Z,10.71
2018-06-29T22:22:49.518Z,10.62
2018-06-29T22:25:17.247Z,10.54
2018-06-29T22:27:44.754Z,10.47
2018-06-29T22:30:12.258Z,10.44
2018-06-29T22:32:39.846Z,10.40
2018-06-29T22:35:07.345Z,10.31
2018-06-29T22:37:34.851Z,10.26
2018-06-29T22:40:02.353Z,10.31
2018-06-29T22:42:29.911Z,10.37
2018-06-29T22:44:57.419Z,10.36
2018-06-29T22:47:24.954Z,10.36
2018-06-29T22:49:52.442Z,10.38
2018-06-29T22:52:19.963Z,10.38
2018-06-29T22:54:48.384Z,10.37
2018-06-29T22:57:15.878Z,10.28
2018-06-29T22:59:43.495Z,10.22
2018-06-29T23:02:11.011Z,10.16
2018-06-29T23:04:38.553Z,10.08
2018-06-29T23:07:06.072Z,9.96
2018-06-29T23:09:33.568Z,9.84
2018-06-29T23:12:01.228Z,9.76
2018-06-29T23:14:28.730Z,9.69
2018-06-29T23:16:56.238Z,9.62
2018-06-29T23:19:23.791Z,9.51
2018-06-29T23:21:51.311Z,9.42
2018-06-29T23:24:18.803Z,9.32
2018-06-29T23:26:46.547Z,9.22
2018-06-29T23:29:14.069Z,9.11
2018-06-29T23:31:41.580Z,9.07
2018-06-29T23:34:09.254Z,9.03
2018-06-29T23:36:36.751Z,8.96
2018-06-29T23:39:06.536Z,8.85
2018-06-29T23:41:34.031Z,8.75
2018-06-29T23:44:01.609Z,8.62
2018-06-29T23:46:29.158Z,8.50
2018-06-29T23:48:56.667Z,8.39
2018-06-29T23:51:24.155Z,8.32
2018-06-29T23:53:51.690Z,8.23
2018-06-29T23:56:19.207Z,8.11
2018-06-29T23:58:46.741Z,8.08
